Ault, Kentucky
Current Conditions -  °F | °C
As of 5:30 AM on Sunday 23 Nov 2014 (Local Time) from KSYM Reporting Station
Broken Clouds Broken Clouds  
Wind Chill: 50°   Ceiling: 9500
Heat Index: 50°   Visibility: 10mi
Dew Point: 32°   Wind: 6mph
Humidity: 50%   Direction: 150°SSE
Pressure: 30.07"   Gusts: 12mph
Location:  38.3543°N, 83.1837°W
Report Text: KSYM 231030Z AUTO 15005G10KT 10SM FEW041 FEW050 BKN095 10/00 A3007 RMK AO2
Loading
Personal Weather Stations






























Interactive Weather Map New forecast layout! Learn more

10-Day Weather Forecast

Advertisements
Track Severe Weather on mobile